sensor_id;sensor_type;location;lat;lon;timestamp;P1;durP1;ratioP1;P2;durP2;ratioP2
7845;SDS011;3968;51.424;6.788;2023-12-04T00:00:49;16.40;;;12.13;;
7845;SDS011;3968;51.424;6.788;2023-12-04T00:03:14;15.07;;;11.70;;
7845;SDS011;3968;51.424;6.788;2023-12-04T00:05:42;19.00;;;12.53;;
7845;SDS011;3968;51.424;6.788;2023-12-04T00:08:08;17.37;;;12.00;;
7845;SDS011;3968;51.424;6.788;2023-12-04T00:10:34;17.87;;;12.10;;
7845;SDS011;3968;51.424;6.788;2023-12-04T00:12:59;16.17;;;11.77;;
7845;SDS011;3968;51.424;6.788;2023-12-04T00:15:25;14.73;;;10.97;;
7845;SDS011;3968;51.424;6.788;2023-12-04T00:17:50;17.87;;;11.30;;
7845;SDS011;3968;51.424;6.788;2023-12-04T00:20:16;16.67;;;11.53;;
7845;SDS011;3968;51.424;6.788;2023-12-04T00:22:42;17.13;;;11.73;;
7845;SDS011;3968;51.424;6.788;2023-12-04T00:25:07;16.30;;;11.87;;
7845;SDS011;3968;51.424;6.788;2023-12-04T00:27:33;14.20;;;11.17;;
7845;SDS011;3968;51.424;6.788;2023-12-04T00:29:59;16.00;;;11.90;;
7845;SDS011;3968;51.424;6.788;2023-12-04T00:32:24;16.73;;;11.03;;
7845;SDS011;3968;51.424;6.788;2023-12-04T00:34:50;14.90;;;10.77;;
7845;SDS011;3968;51.424;6.788;2023-12-04T00:37:15;16.10;;;10.87;;
7845;SDS011;3968;51.424;6.788;2023-12-04T00:39:41;14.33;;;10.43;;
7845;SDS011;3968;51.424;6.788;2023-12-04T00:42:06;14.77;;;10.87;;
7845;SDS011;3968;51.424;6.788;2023-12-04T00:44:33;16.10;;;10.33;;
7845;SDS011;3968;51.424;6.788;2023-12-04T00:46:58;16.80;;;10.60;;
7845;SDS011;3968;51.424;6.788;2023-12-04T00:49:24;15.93;;;10.37;;
7845;SDS011;3968;51.424;6.788;2023-12-04T00:51:49;16.57;;;10.90;;
7845;SDS011;3968;51.424;6.788;2023-12-04T00:54:15;14.03;;;10.23;;
7845;SDS011;3968;51.424;6.788;2023-12-04T00:56:41;15.20;;;10.30;;
7845;SDS011;3968;51.424;6.788;2023-12-04T00:59:09;16.70;;;9.73;;
7845;SDS011;3968;51.424;6.788;2023-12-04T01:01:36;13.97;;;9.30;;
7845;SDS011;3968;51.424;6.788;2023-12-04T01:04:02;17.40;;;10.50;;
7845;SDS011;3968;51.424;6.788;2023-12-04T01:06:28;16.00;;;10.63;;
7845;SDS011;3968;51.424;6.788;2023-12-04T01:08:54;14.90;;;10.53;;
7845;SDS011;3968;51.424;6.788;2023-12-04T01:11:20;15.60;;;10.10;;
7845;SDS011;3968;51.424;6.788;2023-12-04T01:13:46;15.43;;;10.07;;
7845;SDS011;3968;51.424;6.788;2023-12-04T01:16:12;15.23;;;10.13;;
7845;SDS011;3968;51.424;6.788;2023-12-04T01:18:38;13.70;;;10.17;;
7845;SDS011;3968;51.424;6.788;2023-12-04T01:21:03;13.70;;;10.40;;
7845;SDS011;3968;51.424;6.788;2023-12-04T01:23:29;14.40;;;10.07;;
7845;SDS011;3968;51.424;6.788;2023-12-04T01:25:55;12.30;;;9.30;;
7845;SDS011;3968;51.424;6.788;2023-12-04T01:28:20;13.13;;;9.63;;
7845;SDS011;3968;51.424;6.788;2023-12-04T01:30:46;13.50;;;9.20;;
7845;SDS011;3968;51.424;6.788;2023-12-04T01:33:11;13.53;;;9.13;;
7845;SDS011;3968;51.424;6.788;2023-12-04T01:35:37;13.67;;;9.70;;
7845;SDS011;3968;51.424;6.788;2023-12-04T01:38:03;13.47;;;9.73;;
7845;SDS011;3968;51.424;6.788;2023-12-04T01:40:28;13.17;;;9.30;;
7845;SDS011;3968;51.424;6.788;2023-12-04T01:42:54;13.07;;;9.37;;
7845;SDS011;3968;51.424;6.788;2023-12-04T01:45:19;11.50;;;8.77;;
7845;SDS011;3968;51.424;6.788;2023-12-04T01:47:48;13.43;;;9.47;;
7845;SDS011;3968;51.424;6.788;2023-12-04T01:50:13;12.87;;;9.47;;
7845;SDS011;3968;51.424;6.788;2023-12-04T01:52:40;12.03;;;8.93;;
7845;SDS011;3968;51.424;6.788;2023-12-04T01:55:06;14.53;;;9.50;;
7845;SDS011;3968;51.424;6.788;2023-12-04T01:57:33;13.00;;;8.90;;
7845;SDS011;3968;51.424;6.788;2023-12-04T01:59:59;12.07;;;8.73;;
7845;SDS011;3968;51.424;6.788;2023-12-04T02:02:26;13.83;;;9.13;;
7845;SDS011;3968;51.424;6.788;2023-12-04T02:04:56;11.00;;;8.80;;
7845;SDS011;3968;51.424;6.788;2023-12-04T02:07:24;12.30;;;8.83;;
7845;SDS011;3968;51.424;6.788;2023-12-04T02:09:50;11.70;;;8.90;;
7845;SDS011;3968;51.424;6.788;2023-12-04T02:12:16;12.53;;;8.70;;
7845;SDS011;3968;51.424;6.788;2023-12-04T02:14:42;11.00;;;7.93;;
7845;SDS011;3968;51.424;6.788;2023-12-04T02:17:08;10.47;;;8.60;;
7845;SDS011;3968;51.424;6.788;2023-12-04T02:19:34;12.03;;;8.40;;
7845;SDS011;3968;51.424;6.788;2023-12-04T02:22:00;11.10;;;8.37;;
7845;SDS011;3968;51.424;6.788;2023-12-04T02:24:26;10.70;;;8.23;;
7845;SDS011;3968;51.424;6.788;2023-12-04T02:26:53;14.10;;;9.10;;
7845;SDS011;3968;51.424;6.788;2023-12-04T02:29:23;12.03;;;8.43;;
7845;SDS011;3968;51.424;6.788;2023-12-04T02:31:55;10.17;;;7.93;;
7845;SDS011;3968;51.424;6.788;2023-12-04T02:34:21;11.37;;;8.63;;
7845;SDS011;3968;51.424;6.788;2023-12-04T02:36:49;10.13;;;8.40;;
7845;SDS011;3968;51.424;6.788;2023-12-04T02:39:16;11.00;;;8.23;;
7845;SDS011;3968;51.424;6.788;2023-12-04T02:41:42;13.47;;;8.20;;
7845;SDS011;3968;51.424;6.788;2023-12-04T02:44:07;10.20;;;7.87;;
7845;SDS011;3968;51.424;6.788;2023-12-04T02:46:33;13.20;;;8.43;;
7845;SDS011;3968;51.424;6.788;2023-12-04T02:48:58;11.53;;;8.70;;
7845;SDS011;3968;51.424;6.788;2023-12-04T02:51:24;10.47;;;8.30;;
7845;SDS011;3968;51.424;6.788;2023-12-04T02:53:51;9.90;;;8.27;;
7845;SDS011;3968;51.424;6.788;2023-12-04T02:56:17;10.40;;;7.33;;
7845;SDS011;3968;51.424;6.788;2023-12-04T02:58:42;11.00;;;7.73;;
7845;SDS011;3968;51.424;6.788;2023-12-04T03:01:08;11.90;;;8.13;;
7845;SDS011;3968;51.424;6.788;2023-12-04T03:03:33;10.80;;;8.33;;
7845;SDS011;3968;51.424;6.788;2023-12-04T03:05:59;10.50;;;7.90;;
7845;SDS011;3968;51.424;6.788;2023-12-04T03:08:27;8.57;;;6.83;;
7845;SDS011;3968;51.424;6.788;2023-12-04T03:10:52;12.33;;;8.23;;
7845;SDS011;3968;51.424;6.788;2023-12-04T03:13:18;12.30;;;8.13;;
7845;SDS011;3968;51.424;6.788;2023-12-04T03:15:43;11.10;;;8.00;;
7845;SDS011;3968;51.424;6.788;2023-12-04T03:18:09;10.60;;;8.00;;
7845;SDS011;3968;51.424;6.788;2023-12-04T03:20:35;9.70;;;7.93;;
7845;SDS011;3968;51.424;6.788;2023-12-04T03:23:00;12.43;;;8.40;;
7845;SDS011;3968;51.424;6.788;2023-12-04T03:25:26;13.53;;;8.20;;
7845;SDS011;3968;51.424;6.788;2023-12-04T03:27:51;11.20;;;7.93;;
7845;SDS011;3968;51.424;6.788;2023-12-04T03:30:17;9.63;;;7.53;;
7845;SDS011;3968;51.424;6.788;2023-12-04T03:32:43;10.43;;;7.90;;
7845;SDS011;3968;51.424;6.788;2023-12-04T03:35:08;9.20;;;7.23;;
7845;SDS011;3968;51.424;6.788;2023-12-04T03:37:34;10.40;;;7.60;;
7845;SDS011;3968;51.424;6.788;2023-12-04T03:40:01;9.63;;;6.80;;
7845;SDS011;3968;51.424;6.788;2023-12-04T03:42:26;8.87;;;7.30;;
7845;SDS011;3968;51.424;6.788;2023-12-04T03:44:52;9.70;;;6.93;;
7845;SDS011;3968;51.424;6.788;2023-12-04T03:47:17;9.30;;;6.70;;
7845;SDS011;3968;51.424;6.788;2023-12-04T03:49:43;9.73;;;7.40;;
7845;SDS011;3968;51.424;6.788;2023-12-04T03:52:09;9.20;;;6.97;;
7845;SDS011;3968;51.424;6.788;2023-12-04T03:54:34;9.73;;;7.03;;
7845;SDS011;3968;51.424;6.788;2023-12-04T03:57:00;9.60;;;7.50;;
7845;SDS011;3968;51.424;6.788;2023-12-04T03:59:25;8.13;;;6.53;;
7845;SDS011;3968;51.424;6.788;2023-12-04T04:01:51;9.90;;;7.33;;
7845;SDS011;3968;51.424;6.788;2023-12-04T04:04:17;9.67;;;7.20;;
7845;SDS011;3968;51.424;6.788;2023-12-04T04:06:42;8.13;;;6.50;;
7845;SDS011;3968;51.424;6.788;2023-12-04T04:09:08;8.60;;;6.53;;
7845;SDS011;3968;51.424;6.788;2023-12-04T04:11:34;8.87;;;6.47;;
7845;SDS011;3968;51.424;6.788;2023-12-04T04:14:00;8.67;;;6.10;;
7845;SDS011;3968;51.424;6.788;2023-12-04T04:16:26;9.07;;;7.07;;
7845;SDS011;3968;51.424;6.788;2023-12-04T04:18:51;8.73;;;6.50;;
7845;SDS011;3968;51.424;6.788;2023-12-04T04:21:17;8.97;;;6.30;;
7845;SDS011;3968;51.424;6.788;2023-12-04T04:23:42;7.50;;;6.53;;
7845;SDS011;3968;51.424;6.788;2023-12-04T04:26:08;8.30;;;6.23;;
7845;SDS011;3968;51.424;6.788;2023-12-04T04:28:33;8.10;;;6.00;;
7845;SDS011;3968;51.424;6.788;2023-12-04T04:30:59;10.53;;;6.23;;
7845;SDS011;3968;51.424;6.788;2023-12-04T04:33:25;8.83;;;6.50;;
7845;SDS011;3968;51.424;6.788;2023-12-04T04:35:50;8.77;;;6.00;;
7845;SDS011;3968;51.424;6.788;2023-12-04T04:38:16;8.73;;;6.10;;
7845;SDS011;3968;51.424;6.788;2023-12-04T04:40:41;6.93;;;5.83;;
7845;SDS011;3968;51.424;6.788;2023-12-04T04:43:09;8.57;;;6.17;;
7845;SDS011;3968;51.424;6.788;2023-12-04T04:45:35;9.13;;;6.60;;
7845;SDS011;3968;51.424;6.788;2023-12-04T04:48:01;7.67;;;5.77;;
7845;SDS011;3968;51.424;6.788;2023-12-04T04:50:26;10.07;;;6.27;;
7845;SDS011;3968;51.424;6.788;2023-12-04T04:52:52;7.87;;;5.90;;
7845;SDS011;3968;51.424;6.788;2023-12-04T04:55:17;9.60;;;7.00;;
7845;SDS011;3968;51.424;6.788;2023-12-04T04:57:43;9.40;;;6.90;;
7845;SDS011;3968;51.424;6.788;2023-12-04T05:00:09;10.20;;;6.43;;
7845;SDS011;3968;51.424;6.788;2023-12-04T05:02:35;9.23;;;6.60;;
7845;SDS011;3968;51.424;6.788;2023-12-04T05:05:02;7.67;;;6.10;;
7845;SDS011;3968;51.424;6.788;2023-12-04T05:07:28;7.87;;;6.43;;
7845;SDS011;3968;51.424;6.788;2023-12-04T05:09:54;7.30;;;5.97;;
7845;SDS011;3968;51.424;6.788;2023-12-04T05:12:19;7.30;;;5.90;;
7845;SDS011;3968;51.424;6.788;2023-12-04T05:14:45;10.20;;;6.40;;
7845;SDS011;3968;51.424;6.788;2023-12-04T05:17:11;8.43;;;6.33;;
7845;SDS011;3968;51.424;6.788;2023-12-04T05:19:36;8.70;;;6.97;;
7845;SDS011;3968;51.424;6.788;2023-12-04T05:22:02;9.10;;;6.07;;
7845;SDS011;3968;51.424;6.788;2023-12-04T05:24:28;8.33;;;6.00;;
7845;SDS011;3968;51.424;6.788;2023-12-04T05:26:53;8.70;;;6.43;;
7845;SDS011;3968;51.424;6.788;2023-12-04T05:29:19;8.50;;;6.20;;
7845;SDS011;3968;51.424;6.788;2023-12-04T05:31:44;8.40;;;6.67;;
7845;SDS011;3968;51.424;6.788;2023-12-04T05:34:11;8.30;;;6.40;;
7845;SDS011;3968;51.424;6.788;2023-12-04T05:36:37;8.33;;;6.37;;
7845;SDS011;3968;51.424;6.788;2023-12-04T05:39:03;9.70;;;7.17;;
7845;SDS011;3968;51.424;6.788;2023-12-04T05:41:29;8.00;;;6.63;;
7845;SDS011;3968;51.424;6.788;2023-12-04T05:43:55;9.57;;;7.03;;
7845;SDS011;3968;51.424;6.788;2023-12-04T05:46:21;8.90;;;7.00;;
7845;SDS011;3968;51.424;6.788;2023-12-04T05:48:47;9.30;;;6.60;;
7845;SDS011;3968;51.424;6.788;2023-12-04T05:51:12;7.97;;;6.57;;
7845;SDS011;3968;51.424;6.788;2023-12-04T05:53:39;10.53;;;7.50;;
7845;SDS011;3968;51.424;6.788;2023-12-04T05:56:05;7.87;;;6.77;;
7845;SDS011;3968;51.424;6.788;2023-12-04T05:58:32;9.33;;;7.33;;
7845;SDS011;3968;51.424;6.788;2023-12-04T06:00:58;10.20;;;7.50;;
7845;SDS011;3968;51.424;6.788;2023-12-04T06:03:23;10.03;;;7.23;;
7845;SDS011;3968;51.424;6.788;2023-12-04T06:05:49;11.90;;;7.77;;
7845;SDS011;3968;51.424;6.788;2023-12-04T06:08:14;9.97;;;7.77;;
7845;SDS011;3968;51.424;6.788;2023-12-04T06:10:40;10.53;;;8.23;;
7845;SDS011;3968;51.424;6.788;2023-12-04T06:13:08;10.70;;;7.97;;
7845;SDS011;3968;51.424;6.788;2023-12-04T06:15:33;11.50;;;7.53;;
7845;SDS011;3968;51.424;6.788;2023-12-04T06:17:59;12.00;;;7.90;;
7845;SDS011;3968;51.424;6.788;2023-12-04T06:20:25;11.43;;;8.30;;
7845;SDS011;3968;51.424;6.788;2023-12-04T06:22:50;10.67;;;7.87;;
7845;SDS011;3968;51.424;6.788;2023-12-04T06:25:16;10.70;;;7.60;;
7845;SDS011;3968;51.424;6.788;2023-12-04T06:27:43;11.33;;;8.33;;
7845;SDS011;3968;51.424;6.788;2023-12-04T06:30:09;11.17;;;8.37;;
7845;SDS011;3968;51.424;6.788;2023-12-04T06:32:35;10.43;;;7.90;;
7845;SDS011;3968;51.424;6.788;2023-12-04T06:35:01;11.30;;;8.27;;
7845;SDS011;3968;51.424;6.788;2023-12-04T06:37:28;9.93;;;8.00;;
7845;SDS011;3968;51.424;6.788;2023-12-04T06:39:54;11.47;;;7.90;;
7845;SDS011;3968;51.424;6.788;2023-12-04T06:42:27;11.30;;;8.23;;
7845;SDS011;3968;51.424;6.788;2023-12-04T06:44:53;10.97;;;8.30;;
7845;SDS011;3968;51.424;6.788;2023-12-04T06:47:20;12.80;;;9.37;;
7845;SDS011;3968;51.424;6.788;2023-12-04T06:49:47;11.13;;;7.93;;
7845;SDS011;3968;51.424;6.788;2023-12-04T06:52:13;10.70;;;7.97;;
7845;SDS011;3968;51.424;6.788;2023-12-04T06:54:39;10.63;;;7.93;;
7845;SDS011;3968;51.424;6.788;2023-12-04T06:57:04;11.43;;;8.53;;
7845;SDS011;3968;51.424;6.788;2023-12-04T06:59:30;9.77;;;7.80;;
7845;SDS011;3968;51.424;6.788;2023-12-04T07:01:55;9.97;;;8.07;;
7845;SDS011;3968;51.424;6.788;2023-12-04T07:04:21;11.73;;;8.03;;
7845;SDS011;3968;51.424;6.788;2023-12-04T07:06:47;12.23;;;8.77;;
7845;SDS011;3968;51.424;6.788;2023-12-04T07:09:15;11.67;;;8.40;;
7845;SDS011;3968;51.424;6.788;2023-12-04T07:11:45;12.17;;;8.10;;
7845;SDS011;3968;51.424;6.788;2023-12-04T07:14:11;11.20;;;8.13;;
7845;SDS011;3968;51.424;6.788;2023-12-04T07:16:43;10.97;;;8.17;;
7845;SDS011;3968;51.424;6.788;2023-12-04T07:19:09;12.00;;;8.77;;
7845;SDS011;3968;51.424;6.788;2023-12-04T07:21:35;10.57;;;7.87;;
7845;SDS011;3968;51.424;6.788;2023-12-04T07:24:02;10.87;;;7.80;;
7845;SDS011;3968;51.424;6.788;2023-12-04T07:26:27;9.87;;;7.83;;
7845;SDS011;3968;51.424;6.788;2023-12-04T07:28:53;10.10;;;8.03;;
7845;SDS011;3968;51.424;6.788;2023-12-04T07:31:19;10.07;;;7.80;;
7845;SDS011;3968;51.424;6.788;2023-12-04T07:33:44;11.80;;;7.43;;
7845;SDS011;3968;51.424;6.788;2023-12-04T07:36:10;8.93;;;7.37;;
7845;SDS011;3968;51.424;6.788;2023-12-04T07:38:36;9.83;;;7.40;;
7845;SDS011;3968;51.424;6.788;2023-12-04T07:41:01;9.53;;;7.70;;
7845;SDS011;3968;51.424;6.788;2023-12-04T07:43:27;10.90;;;7.93;;
7845;SDS011;3968;51.424;6.788;2023-12-04T07:45:55;10.03;;;7.67;;
7845;SDS011;3968;51.424;6.788;2023-12-04T07:48:21;9.80;;;7.87;;
7845;SDS011;3968;51.424;6.788;2023-12-04T07:50:46;12.23;;;8.23;;
7845;SDS011;3968;51.424;6.788;2023-12-04T07:53:12;10.23;;;7.70;;
7845;SDS011;3968;51.424;6.788;2023-12-04T07:55:38;10.53;;;8.30;;
7845;SDS011;3968;51.424;6.788;2023-12-04T07:58:04;10.50;;;7.83;;
7845;SDS011;3968;51.424;6.788;2023-12-04T08:00:30;9.93;;;7.73;;
7845;SDS011;3968;51.424;6.788;2023-12-04T08:02:55;11.53;;;8.10;;
7845;SDS011;3968;51.424;6.788;2023-12-04T08:05:21;11.03;;;7.93;;
7845;SDS011;3968;51.424;6.788;2023-12-04T08:07:47;8.77;;;7.13;;
7845;SDS011;3968;51.424;6.788;2023-12-04T08:10:13;10.57;;;7.07;;
7845;SDS011;3968;51.424;6.788;2023-12-04T08:12:39;9.67;;;7.70;;
7845;SDS011;3968;51.424;6.788;2023-12-04T08:15:05;10.00;;;7.90;;
7845;SDS011;3968;51.424;6.788;2023-12-04T08:17:31;8.60;;;6.47;;
7845;SDS011;3968;51.424;6.788;2023-12-04T08:19:56;8.50;;;6.97;;
7845;SDS011;3968;51.424;6.788;2023-12-04T08:22:22;10.13;;;7.27;;
7845;SDS011;3968;51.424;6.788;2023-12-04T08:24:48;8.50;;;6.87;;
7845;SDS011;3968;51.424;6.788;2023-12-04T08:27:13;11.00;;;6.47;;
7845;SDS011;3968;51.424;6.788;2023-12-04T08:29:39;7.97;;;6.33;;
7845;SDS011;3968;51.424;6.788;2023-12-04T08:32:05;8.40;;;6.47;;
7845;SDS011;3968;51.424;6.788;2023-12-04T08:34:31;9.13;;;6.97;;
7845;SDS011;3968;51.424;6.788;2023-12-04T08:36:57;8.43;;;6.47;;
7845;SDS011;3968;51.424;6.788;2023-12-04T08:39:22;8.77;;;6.97;;
7845;SDS011;3968;51.424;6.788;2023-12-04T08:41:48;8.50;;;6.40;;
7845;SDS011;3968;51.424;6.788;2023-12-04T08:44:14;10.23;;;6.60;;
7845;SDS011;3968;51.424;6.788;2023-12-04T08:46:39;9.70;;;6.07;;
7845;SDS011;3968;51.424;6.788;2023-12-04T08:49:06;8.43;;;6.70;;
7845;SDS011;3968;51.424;6.788;2023-12-04T08:51:32;8.20;;;6.13;;
7845;SDS011;3968;51.424;6.788;2023-12-04T08:53:57;9.50;;;6.40;;
7845;SDS011;3968;51.424;6.788;2023-12-04T08:56:23;7.30;;;5.83;;
7845;SDS011;3968;51.424;6.788;2023-12-04T08:58:49;7.77;;;5.47;;
7845;SDS011;3968;51.424;6.788;2023-12-04T09:01:15;7.13;;;5.67;;
7845;SDS011;3968;51.424;6.788;2023-12-04T09:03:41;7.53;;;5.73;;
7845;SDS011;3968;51.424;6.788;2023-12-04T09:06:06;8.87;;;5.90;;
7845;SDS011;3968;51.424;6.788;2023-12-04T09:08:32;7.10;;;5.50;;
7845;SDS011;3968;51.424;6.788;2023-12-04T09:10:59;6.50;;;5.40;;
7845;SDS011;3968;51.424;6.788;2023-12-04T09:13:25;7.97;;;5.23;;
7845;SDS011;3968;51.424;6.788;2023-12-04T09:15:51;8.23;;;5.60;;
7845;SDS011;3968;51.424;6.788;2023-12-04T09:18:17;8.30;;;5.43;;
7845;SDS011;3968;51.424;6.788;2023-12-04T09:20:42;8.27;;;5.53;;
7845;SDS011;3968;51.424;6.788;2023-12-04T09:23:08;7.30;;;5.50;;
7845;SDS011;3968;51.424;6.788;2023-12-04T09:25:34;6.13;;;4.93;;
7845;SDS011;3968;51.424;6.788;2023-12-04T09:28:00;7.13;;;5.00;;
7845;SDS011;3968;51.424;6.788;2023-12-04T09:30:26;8.23;;;5.37;;
7845;SDS011;3968;51.424;6.788;2023-12-04T09:32:51;6.90;;;5.80;;
7845;SDS011;3968;51.424;6.788;2023-12-04T09:35:23;6.60;;;5.27;;
7845;SDS011;3968;51.424;6.788;2023-12-04T09:37:48;7.43;;;5.57;;
7845;SDS011;3968;51.424;6.788;2023-12-04T09:40:15;7.03;;;5.40;;
7845;SDS011;3968;51.424;6.788;2023-12-04T09:42:41;7.60;;;5.70;;
7845;SDS011;3968;51.424;6.788;2023-12-04T09:45:08;6.87;;;5.37;;
7845;SDS011;3968;51.424;6.788;2023-12-04T09:47:34;66.67;;;37.77;;
7845;SDS011;3968;51.424;6.788;2023-12-04T09:50:00;65.57;;;38.63;;
7845;SDS011;3968;51.424;6.788;2023-12-04T09:52:27;38.33;;;22.70;;
7845;SDS011;3968;51.424;6.788;2023-12-04T09:54:53;22.27;;;13.77;;
7845;SDS011;3968;51.424;6.788;2023-12-04T09:57:18;12.73;;;8.47;;
7845;SDS011;3968;51.424;6.788;2023-12-04T09:59:47;8.87;;;6.47;;
7845;SDS011;3968;51.424;6.788;2023-12-04T10:02:13;9.53;;;5.70;;
7845;SDS011;3968;51.424;6.788;2023-12-04T10:04:39;8.20;;;6.17;;
7845;SDS011;3968;51.424;6.788;2023-12-04T10:07:07;7.00;;;5.27;;
7845;SDS011;3968;51.424;6.788;2023-12-04T10:09:33;9.67;;;5.20;;
7845;SDS011;3968;51.424;6.788;2023-12-04T10:11:59;8.57;;;5.47;;
7845;SDS011;3968;51.424;6.788;2023-12-04T10:14:25;6.30;;;5.20;;
7845;SDS011;3968;51.424;6.788;2023-12-04T10:16:53;5.67;;;4.80;;
7845;SDS011;3968;51.424;6.788;2023-12-04T10:21:51;7.77;;;5.20;;
7845;SDS011;3968;51.424;6.788;2023-12-04T10:24:30;23.87;;;14.10;;
7845;SDS011;3968;51.424;6.788;2023-12-04T10:27:01;22.37;;;12.87;;
7845;SDS011;3968;51.424;6.788;2023-12-04T10:29:30;9.80;;;5.77;;
7845;SDS011;3968;51.424;6.788;2023-12-04T10:32:20;5.97;;;5.23;;
7845;SDS011;3968;51.424;6.788;2023-12-04T10:34:49;5.80;;;4.40;;
7845;SDS011;3968;51.424;6.788;2023-12-04T10:37:15;7.67;;;5.03;;
7845;SDS011;3968;51.424;6.788;2023-12-04T10:39:48;7.70;;;5.17;;
7845;SDS011;3968;51.424;6.788;2023-12-04T10:42:27;6.27;;;4.87;;
7845;SDS011;3968;51.424;6.788;2023-12-04T10:44:55;6.43;;;5.30;;
7845;SDS011;3968;51.424;6.788;2023-12-04T10:47:24;5.57;;;4.83;;
7845;SDS011;3968;51.424;6.788;2023-12-04T10:49:51;6.17;;;4.83;;
7845;SDS011;3968;51.424;6.788;2023-12-04T10:52:17;6.30;;;5.07;;
7845;SDS011;3968;51.424;6.788;2023-12-04T10:54:44;7.87;;;5.30;;
7845;SDS011;3968;51.424;6.788;2023-12-04T10:57:20;7.37;;;5.60;;
7845;SDS011;3968;51.424;6.788;2023-12-04T10:59:57;7.27;;;5.60;;
7845;SDS011;3968;51.424;6.788;2023-12-04T11:02:25;7.67;;;5.27;;
7845;SDS011;3968;51.424;6.788;2023-12-04T11:05:00;7.07;;;5.50;;
7845;SDS011;3968;51.424;6.788;2023-12-04T11:07:39;7.83;;;5.80;;
7845;SDS011;3968;51.424;6.788;2023-12-04T11:10:08;7.17;;;5.67;;
7845;SDS011;3968;51.424;6.788;2023-12-04T11:12:36;8.20;;;5.67;;
7845;SDS011;3968;51.424;6.788;2023-12-04T11:15:09;8.23;;;5.70;;
7845;SDS011;3968;51.424;6.788;2023-12-04T11:17:39;6.90;;;5.80;;
7845;SDS011;3968;51.424;6.788;2023-12-04T11:20:12;9.20;;;6.40;;
7845;SDS011;3968;51.424;6.788;2023-12-04T11:22:43;8.20;;;5.83;;
7845;SDS011;3968;51.424;6.788;2023-12-04T11:25:11;8.30;;;6.33;;
7845;SDS011;3968;51.424;6.788;2023-12-04T11:27:39;7.07;;;6.00;;
7845;SDS011;3968;51.424;6.788;2023-12-04T11:30:06;8.47;;;6.33;;
7845;SDS011;3968;51.424;6.788;2023-12-04T11:32:37;8.87;;;6.07;;
7845;SDS011;3968;51.424;6.788;2023-12-04T11:35:17;8.40;;;6.43;;
7845;SDS011;3968;51.424;6.788;2023-12-04T11:37:43;9.83;;;6.13;;
7845;SDS011;3968;51.424;6.788;2023-12-04T11:40:12;10.30;;;6.83;;
7845;SDS011;3968;51.424;6.788;2023-12-04T11:42:38;8.80;;;6.50;;
7845;SDS011;3968;51.424;6.788;2023-12-04T11:45:04;10.70;;;6.57;;
7845;SDS011;3968;51.424;6.788;2023-12-04T11:47:31;10.20;;;6.80;;
7845;SDS011;3968;51.424;6.788;2023-12-04T11:50:26;7.83;;;6.67;;
7845;SDS011;3968;51.424;6.788;2023-12-04T11:52:52;10.67;;;6.70;;
7845;SDS011;3968;51.424;6.788;2023-12-04T11:55:20;8.60;;;7.10;;
7845;SDS011;3968;51.424;6.788;2023-12-04T11:57:47;8.90;;;7.00;;
7845;SDS011;3968;51.424;6.788;2023-12-04T12:05:23;8.57;;;6.33;;
7845;SDS011;3968;51.424;6.788;2023-12-04T12:07:50;9.33;;;6.37;;
7845;SDS011;3968;51.424;6.788;2023-12-04T12:10:16;10.53;;;7.27;;
7845;SDS011;3968;51.424;6.788;2023-12-04T12:12:42;11.40;;;7.77;;
7845;SDS011;3968;51.424;6.788;2023-12-04T12:15:11;10.53;;;7.23;;
7845;SDS011;3968;51.424;6.788;2023-12-04T12:17:38;8.47;;;6.80;;
7845;SDS011;3968;51.424;6.788;2023-12-04T12:20:13;9.63;;;7.37;;
7845;SDS011;3968;51.424;6.788;2023-12-04T12:22:40;10.80;;;7.30;;
7845;SDS011;3968;51.424;6.788;2023-12-04T12:25:08;10.40;;;7.53;;
7845;SDS011;3968;51.424;6.788;2023-12-04T12:27:36;10.03;;;7.20;;
7845;SDS011;3968;51.424;6.788;2023-12-04T12:30:02;12.67;;;7.53;;
7845;SDS011;3968;51.424;6.788;2023-12-04T12:32:30;10.43;;;7.43;;
7845;SDS011;3968;51.424;6.788;2023-12-04T12:34:56;8.73;;;6.87;;
7845;SDS011;3968;51.424;6.788;2023-12-04T12:37:22;9.27;;;7.30;;
7845;SDS011;3968;51.424;6.788;2023-12-04T12:39:48;11.23;;;7.80;;
7845;SDS011;3968;51.424;6.788;2023-12-04T12:42:26;10.60;;;7.30;;
7845;SDS011;3968;51.424;6.788;2023-12-04T12:44:54;8.17;;;6.83;;
7845;SDS011;3968;51.424;6.788;2023-12-04T12:47:24;9.93;;;7.77;;
7845;SDS011;3968;51.424;6.788;2023-12-04T12:49:49;9.07;;;7.20;;
7845;SDS011;3968;51.424;6.788;2023-12-04T12:52:17;10.50;;;7.47;;
7845;SDS011;3968;51.424;6.788;2023-12-04T12:54:43;10.73;;;7.23;;
7845;SDS011;3968;51.424;6.788;2023-12-04T12:57:10;12.10;;;7.70;;
7845;SDS011;3968;51.424;6.788;2023-12-04T12:59:37;9.63;;;7.10;;
7845;SDS011;3968;51.424;6.788;2023-12-04T13:02:04;9.17;;;7.30;;
7845;SDS011;3968;51.424;6.788;2023-12-04T13:04:38;10.13;;;7.63;;
7845;SDS011;3968;51.424;6.788;2023-12-04T13:07:07;11.07;;;7.50;;
7845;SDS011;3968;51.424;6.788;2023-12-04T13:09:33;8.37;;;6.70;;
7845;SDS011;3968;51.424;6.788;2023-12-04T13:12:03;9.87;;;7.73;;
7845;SDS011;3968;51.424;6.788;2023-12-04T13:14:29;9.67;;;7.30;;
7845;SDS011;3968;51.424;6.788;2023-12-04T13:16:55;10.47;;;7.63;;
7845;SDS011;3968;51.424;6.788;2023-12-04T13:19:21;10.83;;;7.93;;
7845;SDS011;3968;51.424;6.788;2023-12-04T13:21:48;10.17;;;6.50;;
7845;SDS011;3968;51.424;6.788;2023-12-04T13:24:14;8.63;;;6.60;;
7845;SDS011;3968;51.424;6.788;2023-12-04T13:26:39;12.13;;;7.27;;
7845;SDS011;3968;51.424;6.788;2023-12-04T13:29:05;9.20;;;6.77;;
7845;SDS011;3968;51.424;6.788;2023-12-04T13:31:33;8.43;;;6.50;;
7845;SDS011;3968;51.424;6.788;2023-12-04T13:33:59;9.23;;;6.80;;
7845;SDS011;3968;51.424;6.788;2023-12-04T13:36:25;8.27;;;6.57;;
7845;SDS011;3968;51.424;6.788;2023-12-04T13:38:52;11.83;;;7.00;;
7845;SDS011;3968;51.424;6.788;2023-12-04T13:41:18;9.73;;;6.63;;
7845;SDS011;3968;51.424;6.788;2023-12-04T13:44:03;9.60;;;6.63;;
7845;SDS011;3968;51.424;6.788;2023-12-04T13:46:28;8.17;;;6.37;;
7845;SDS011;3968;51.424;6.788;2023-12-04T13:48:54;8.90;;;6.90;;
7845;SDS011;3968;51.424;6.788;2023-12-04T13:51:23;9.47;;;5.90;;
7845;SDS011;3968;51.424;6.788;2023-12-04T13:53:50;8.57;;;6.27;;
7845;SDS011;3968;51.424;6.788;2023-12-04T13:56:20;7.57;;;6.10;;
7845;SDS011;3968;51.424;6.788;2023-12-04T13:58:47;7.97;;;6.37;;
7845;SDS011;3968;51.424;6.788;2023-12-04T14:01:19;8.10;;;5.97;;
7845;SDS011;3968;51.424;6.788;2023-12-04T14:03:48;11.87;;;6.00;;
7845;SDS011;3968;51.424;6.788;2023-12-04T14:06:13;8.43;;;6.47;;
7845;SDS011;3968;51.424;6.788;2023-12-04T14:08:42;9.23;;;6.50;;
7845;SDS011;3968;51.424;6.788;2023-12-04T14:11:08;9.97;;;6.10;;
7845;SDS011;3968;51.424;6.788;2023-12-04T14:13:36;7.07;;;6.13;;
7845;SDS011;3968;51.424;6.788;2023-12-04T14:16:01;7.80;;;5.60;;
7845;SDS011;3968;51.424;6.788;2023-12-04T14:18:28;10.23;;;6.10;;
7845;SDS011;3968;51.424;6.788;2023-12-04T14:20:55;8.10;;;5.93;;
7845;SDS011;3968;51.424;6.788;2023-12-04T14:23:21;7.83;;;6.03;;
7845;SDS011;3968;51.424;6.788;2023-12-04T14:25:47;9.47;;;6.20;;
7845;SDS011;3968;51.424;6.788;2023-12-04T14:28:12;6.37;;;5.73;;
7845;SDS011;3968;51.424;6.788;2023-12-04T14:30:38;11.07;;;6.53;;
7845;SDS011;3968;51.424;6.788;2023-12-04T14:33:05;7.97;;;6.23;;
7845;SDS011;3968;51.424;6.788;2023-12-04T14:35:31;8.33;;;6.33;;
7845;SDS011;3968;51.424;6.788;2023-12-04T14:37:56;7.17;;;5.80;;
7845;SDS011;3968;51.424;6.788;2023-12-04T14:40:22;8.77;;;5.80;;
7845;SDS011;3968;51.424;6.788;2023-12-04T14:42:48;6.83;;;5.90;;
7845;SDS011;3968;51.424;6.788;2023-12-04T14:45:14;6.60;;;5.57;;
7845;SDS011;3968;51.424;6.788;2023-12-04T14:47:41;6.97;;;5.20;;
7845;SDS011;3968;51.424;6.788;2023-12-04T14:50:07;6.57;;;4.40;;
7845;SDS011;3968;51.424;6.788;2023-12-04T14:52:34;7.13;;;4.93;;
7845;SDS011;3968;51.424;6.788;2023-12-04T14:55:03;6.10;;;4.63;;
7845;SDS011;3968;51.424;6.788;2023-12-04T14:57:35;6.63;;;4.97;;
7845;SDS011;3968;51.424;6.788;2023-12-04T15:00:04;6.23;;;5.10;;
7845;SDS011;3968;51.424;6.788;2023-12-04T15:02:49;7.77;;;5.43;;
7845;SDS011;3968;51.424;6.788;2023-12-04T15:05:32;6.93;;;4.83;;
7845;SDS011;3968;51.424;6.788;2023-12-04T15:08:31;6.57;;;4.90;;
7845;SDS011;3968;51.424;6.788;2023-12-04T15:11:15;7.83;;;5.10;;
7845;SDS011;3968;51.424;6.788;2023-12-04T15:14:07;5.97;;;4.73;;